Time;durP1;ratioP1;P1;durP2;ratioP2;P2;SDS_P1;SDS_P2;PMS_P1;PMS_P2;Temp;Humidity;BMP_temperature;BMP_pressure;BME280_temperature;BME280_humidity;BME280_pressure;Samples;Min_cycle;Max_cycle;Signal;HPM_P1;HPM_P2
2022/11/22 00:04:45;;;;;;;22.92;9.65;;;;;;;4.62;100.00;98988.78;10444953;28;20057;-90
2022/11/22 00:09:46;;;;;;;10.63;5.30;;;;;;;4.64;100.00;98990.59;10430799;28;20064;-91
2022/11/22 00:14:46;;;;;;;21.55;6.63;;;;;;;4.67;100.00;98980.34;10447203;28;20124;-90
2022/11/22 00:19:47;;;;;;;13.45;6.55;;;;;;;4.55;100.00;98974.66;10446367;28;20037;-90
2022/11/22 00:24:50;;;;;;;13.23;6.25;;;;;;;4.43;100.00;98990.59;10447871;28;20033;-91
2022/11/22 00:29:50;;;;;;;19.17;7.60;;;;;;;4.51;100.00;98991.81;10445463;28;20047;-90
2022/11/22 00:34:51;;;;;;;20.25;7.97;;;;;;;4.54;100.00;98986.75;10446818;28;20388;-91
2022/11/22 00:39:51;;;;;;;13.68;6.78;;;;;;;4.28;100.00;98982.19;10388171;28;20043;-89
2022/11/22 00:44:52;;;;;;;12.20;6.68;;;;;;;4.09;100.00;98977.09;10405152;28;20382;-90
2022/11/22 00:49:52;;;;;;;15.05;6.28;;;;;;;3.93;100.00;98985.91;10404778;28;20038;-90
2022/11/22 00:54:53;;;;;;;13.80;5.78;;;;;;;3.81;100.00;98988.81;10444150;28;20041;-90
2022/11/22 00:59:53;;;;;;;11.48;5.38;;;;;;;3.86;100.00;98980.38;10405065;28;20072;-87
2022/11/22 01:04:54;;;;;;;13.68;5.30;;;;;;;3.92;100.00;98983.22;10442340;28;20048;-88
2022/11/22 01:09:54;;;;;;;24.33;6.50;;;;;;;3.95;100.00;98986.84;10448094;28;20087;-87
2022/11/22 01:14:55;;;;;;;12.75;5.88;;;;;;;3.89;100.00;98984.00;10440580;28;20132;-89
2022/11/22 01:19:55;;;;;;;10.30;5.35;;;;;;;3.82;100.00;98993.19;10444273;28;20037;-90
2022/11/22 01:24:56;;;;;;;13.93;5.25;;;;;;;3.78;100.00;99005.94;10445768;28;20068;-90
2022/11/22 01:29:56;;;;;;;17.73;5.53;;;;;;;3.75;100.00;99008.38;10443363;28;20029;-90
2022/11/22 01:34:57;;;;;;;22.30;6.22;;;;;;;3.87;100.00;99011.53;10440723;28;20108;-89
2022/11/22 01:39:57;;;;;;;13.05;5.93;;;;;;;3.79;100.00;99005.97;10459351;28;20060;-89
2022/11/22 01:45:30;;;;;;;10.85;5.20;;;;;;;3.89;100.00;99014.16;10445990;28;20127;-89
2022/11/22 01:50:32;;;;;;;16.15;7.03;;;;;;;3.78;100.00;99011.09;10448427;28;20051;-91
2022/11/22 01:55:33;;;;;;;18.23;6.63;;;;;;;3.93;100.00;99018.66;10443934;28;20037;-90
2022/11/22 02:00:33;;;;;;;23.40;7.63;;;;;;;3.77;100.00;99025.72;10441843;28;20448;-90
2022/11/22 02:05:34;;;;;;;16.35;6.32;;;;;;;3.76;100.00;99034.31;10426324;28;20049;-90
2022/11/22 02:10:36;;;;;;;26.27;7.53;;;;;;;3.78;100.00;99039.56;10441618;28;20033;-89
2022/11/22 02:15:37;;;;;;;23.05;6.60;;;;;;;3.84;100.00;99038.94;10425871;28;20036;-89
2022/11/22 02:20:37;;;;;;;13.90;6.60;;;;;;;3.81;100.00;99040.56;10442073;28;20064;-89
2022/11/22 02:25:40;;;;;;;18.45;6.22;;;;;;;3.79;100.00;99042.22;10424384;28;20108;-83
2022/11/22 02:30:41;;;;;;;34.33;6.70;;;;;;;3.94;100.00;99035.94;10442917;28;20043;-88
2022/11/22 02:35:42;;;;;;;17.02;7.82;;;;;;;3.82;100.00;99034.59;10441196;28;20131;-88
2022/11/22 02:40:45;;;;;;;23.60;6.47;;;;;;;3.80;100.00;99036.22;10408949;28;20132;-88
2022/11/22 02:45:46;;;;;;;18.75;6.03;;;;;;;3.75;100.00;99049.78;10466377;28;20029;-89
2022/11/22 02:50:46;;;;;;;14.75;6.00;;;;;;;3.78;100.00;99049.94;10478292;28;20123;-91
2022/11/22 02:55:47;;;;;;;19.08;7.72;;;;;;;3.69;100.00;99059.84;10441243;28;20057;-90
2022/11/22 03:00:47;;;;;;;20.55;7.10;;;;;;;3.52;100.00;99066.00;10460169;28;20467;-89
2022/11/22 03:05:48;;;;;;;23.70;7.68;;;;;;;3.48;100.00;99069.25;10440947;28;20040;-89
2022/11/22 03:10:48;;;;;;;18.95;6.35;;;;;;;3.46;100.00;99081.22;10477382;28;20539;-88
2022/11/22 03:15:49;;;;;;;14.23;6.78;;;;;;;3.22;100.00;99076.66;10440945;28;20021;-88
2022/11/22 03:20:49;;;;;;;24.77;7.03;;;;;;;3.19;100.00;99083.41;10445694;28;20048;-86
2022/11/22 03:25:50;;;;;;;20.27;6.93;;;;;;;3.30;100.00;99079.63;10459215;28;20037;-85
2022/11/22 03:30:50;;;;;;;19.50;6.93;;;;;;;3.18;100.00;99079.91;10441786;28;20086;-89
2022/11/22 03:35:57;;;;;;;19.50;5.82;;;;;;;3.10;100.00;99080.38;10423931;28;20048;-90
2022/11/22 03:40:58;;;;;;;14.77;5.03;;;;;;;3.04;100.00;99088.69;10447527;28;20554;-89
2022/11/22 03:45:58;;;;;;;16.40;6.82;;;;;;;3.03;100.00;99089.50;10449952;28;20033;-89
2022/11/22 03:51:05;;;;;;;18.73;6.72;;;;;;;3.03;100.00;99080.06;10448227;28;20481;-88
2022/11/22 03:56:05;;;;;;;18.33;4.93;;;;;;;3.03;100.00;99081.75;10478679;28;20559;-89
2022/11/22 04:01:06;;;;;;;23.38;6.10;;;;;;;2.94;100.00;99084.78;10467526;28;20041;-87
2022/11/22 04:06:06;;;;;;;18.33;7.43;;;;;;;2.74;100.00;99084.69;10447951;28;20091;-88
2022/11/22 04:11:07;;;;;;;23.60;6.55;;;;;;;2.77;100.00;99102.91;10449071;28;20178;-87
2022/11/22 04:16:07;;;;;;;19.65;5.45;;;;;;;2.74;100.00;99109.59;10447088;28;20049;-88
2022/11/22 04:26:27;;;;;;;27.40;7.15;;;;;;;2.58;100.00;99132.06;10447892;28;20068;-88
2022/11/22 04:36:46;;;;;;;18.65;5.72;;;;;;;2.57;100.00;99132.88;10452841;28;20389;-87
2022/11/22 04:44:39;;;;;;;20.88;5.57;;;;;;;2.53;100.00;99136.13;10453051;28;20060;-87
2022/11/22 04:47:08;;;;;;;19.10;5.85;;;;;;;2.63;100.00;99129.75;10458248;28;20049;-88
2022/11/22 04:57:28;;;;;;;18.17;5.60;;;;;;;2.51;100.00;99134.28;10446004;28;20065;-90
2022/11/22 05:02:28;;;;;;;31.25;10.43;;;;;;;2.34;100.00;99131.69;10450231;28;20119;-85
2022/11/22 05:07:29;;;;;;;13.90;5.90;;;;;;;2.25;100.00;99136.38;10444665;28;20040;-87
2022/11/22 05:12:29;;;;;;;15.85;6.55;;;;;;;2.21;100.00;99132.72;10456543;28;20063;-88
2022/11/22 05:17:30;;;;;;;22.45;6.93;;;;;;;2.14;100.00;99133.22;10440571;28;20473;-89
2022/11/22 05:27:52;;;;;;;18.55;8.75;;;;;;;1.89;100.00;99129.31;10466105;28;20044;-89
2022/11/22 05:32:53;;;;;;;18.88;5.95;;;;;;;1.89;100.00;99139.63;10482835;28;20052;-90
2022/11/22 05:37:57;;;;;;;18.30;5.38;;;;;;;1.78;100.00;99140.72;10443925;28;20037;-88
2022/11/22 05:42:58;;;;;;;17.70;6.03;;;;;;;1.71;100.00;99139.53;10459268;28;20103;-87
2022/11/22 05:47:59;;;;;;;19.20;7.18;;;;;;;1.71;100.00;99136.94;10459671;28;20457;-82
2022/11/22 05:53:00;;;;;;;15.80;5.97;;;;;;;1.56;100.00;99135.28;10440776;28;20504;-84
2022/11/22 05:58:01;;;;;;;19.90;7.15;;;;;;;1.58;100.00;99143.09;10425117;28;20033;-92
2022/11/22 06:03:02;;;;;;;29.98;12.05;;;;;;;1.43;100.00;99136.28;10427903;28;20103;-83
2022/11/22 06:08:03;;;;;;;21.60;5.32;;;;;;;1.57;100.00;99136.16;10443022;28;20060;-90
2022/11/22 06:13:03;;;;;;;24.23;6.80;;;;;;;1.57;100.00;99139.66;10444632;28;20069;-86
2022/11/22 06:18:04;;;;;;;31.85;6.93;;;;;;;1.68;100.00;99136.78;10430618;28;20038;-86
2022/11/22 06:23:04;;;;;;;16.88;6.13;;;;;;;1.69;100.00;99134.25;10411374;28;20708;-87
2022/11/22 06:28:05;;;;;;;17.98;6.10;;;;;;;1.68;100.00;99131.63;10439944;28;20120;-89
2022/11/22 06:33:05;;;;;;;24.45;8.48;;;;;;;1.59;100.00;99137.13;10432226;28;20053;-88
2022/11/22 06:38:06;;;;;;;30.00;6.80;;;;;;;1.67;100.00;99141.03;10461679;28;20190;-84
2022/11/22 06:43:06;;;;;;;20.33;7.00;;;;;;;1.72;100.00;99152.50;10475832;28;20047;-83
2022/11/22 06:48:16;;;;;;;20.20;7.00;;;;;;;1.57;100.00;99154.22;10447036;28;20106;-88
2022/11/22 06:53:17;;;;;;;18.65;5.60;;;;;;;1.38;100.00;99144.56;10440596;28;20477;-89
2022/11/22 06:58:17;;;;;;;21.17;7.63;;;;;;;1.30;100.00;99157.91;10440396;28;20124;-85
2022/11/22 07:03:18;;;;;;;15.43;5.82;;;;;;;1.25;100.00;99156.78;10470726;28;20056;-87
2022/11/22 07:08:18;;;;;;;22.30;7.88;;;;;;;1.27;100.00;99165.47;10440634;28;20033;-87
2022/11/22 07:13:19;;;;;;;23.25;5.78;;;;;;;1.41;100.00;99173.09;10418938;28;20080;-84
2022/11/22 07:18:19;;;;;;;22.95;8.05;;;;;;;1.50;100.00;99183.03;10420901;28;20041;-84
2022/11/22 07:23:20;;;;;;;17.75;5.93;;;;;;;1.29;100.00;99194.81;10461343;28;20412;-88
2022/11/22 07:28:20;;;;;;;11.43;4.68;;;;;;;1.24;100.00;99193.66;10459496;28;20047;-85
2022/11/22 07:33:21;;;;;;;17.42;7.05;;;;;;;1.45;100.00;99195.69;10454898;28;20145;-89
2022/11/22 07:38:22;;;;;;;17.35;7.60;;;;;;;1.55;100.00;99204.81;10478429;28;20102;-90
2022/11/22 07:43:22;;;;;;;28.30;7.57;;;;;;;1.81;100.00;99210.56;10482031;28;20048;-90
2022/11/22 07:48:23;;;;;;;18.88;5.97;;;;;;;2.02;100.00;99208.28;10477173;28;20136;-90
2022/11/22 07:53:24;;;;;;;19.65;6.65;;;;;;;2.29;100.00;99213.19;10459771;28;20045;-91
2022/11/22 07:58:27;;;;;;;15.55;5.10;;;;;;;2.54;100.00;99217.97;10482897;28;20492;-90
2022/11/22 08:03:27;;;;;;;15.20;4.70;;;;;;;2.60;100.00;99218.28;10466978;28;20439;-90
2022/11/22 08:08:28;;;;;;;19.40;5.00;;;;;;;2.61;100.00;99224.34;10459974;28;20083;-84
2022/11/22 08:13:29;;;;;;;31.30;6.97;;;;;;;2.86;100.00;99229.09;10448342;28;20131;-84
2022/11/22 08:18:30;;;;;;;14.20;5.72;;;;;;;3.03;100.00;99222.22;10470962;28;20391;-85
2022/11/22 08:23:30;;;;;;;18.02;5.95;;;;;;;3.21;100.00;99204.16;10447155;28;20041;-83
2022/11/22 08:28:31;;;;;;;14.70;4.75;;;;;;;3.37;100.00;99218.75;10450676;28;20132;-87
2022/11/22 08:33:32;;;;;;;14.00;5.15;;;;;;;3.49;100.00;99228.81;10479819;28;20091;-87
2022/11/22 08:38:32;;;;;;;25.45;6.40;;;;;;;3.55;100.00;99220.50;10453146;28;20135;-88
2022/11/22 08:43:33;;;;;;;11.30;5.03;;;;;;;3.77;100.00;99224.13;10438477;28;20132;-90
2022/11/22 08:48:34;;;;;;;9.48;2.53;;;;;;;3.99;100.00;99219.97;10427691;28;20041;-88
2022/11/22 08:53:37;;;;;;;12.02;4.97;;;;;;;4.14;100.00;99219.78;10445711;28;20041;-88
2022/11/22 08:58:37;;;;;;;;;;;;;;;4.43;100.00;99238.38;10428352;28;20040;-89
2022/11/22 09:03:38;;;;;;;9.45;3.75;;;;;;;4.55;100.00;99231.19;10443011;28;19932;-89
2022/11/22 09:08:39;;;;;;;12.27;2.43;;;;;;;4.57;100.00;99220.91;10446155;28;20119;-87
2022/11/22 09:13:40;;;;;;;7.00;3.10;;;;;;;4.58;100.00;99228.72;10427694;28;20037;-88
2022/11/22 09:18:40;;;;;;;6.10;2.22;;;;;;;4.74;100.00;99219.94;10426440;28;20037;-88
2022/11/22 09:23:44;;;;;;;6.82;1.88;;;;;;;4.98;100.00;99216.66;10427027;28;20053;-87
2022/11/22 09:28:45;;;;;;;7.25;1.77;;;;;;;4.97;100.00;99213.16;10442352;28;20044;-87
2022/11/22 09:33:46;;;;;;;4.95;1.55;;;;;;;4.99;100.00;99219.31;10442106;28;20026;-88
2022/11/22 09:38:46;;;;;;;4.68;1.50;;;;;;;5.19;100.00;99202.84;10425429;28;20117;-89
2022/11/22 09:43:56;;;;;;;5.93;1.63;;;;;;;5.93;100.00;99197.19;10442762;28;20033;-88
2022/11/22 09:49:05;;;;;;;1.80;0.98;;;;;;;6.12;99.22;99196.22;10443530;28;20504;-90
2022/11/22 09:54:08;;;;;;;6.78;1.15;;;;;;;5.94;95.35;99199.84;10441742;28;20041;-88
2022/11/22 09:59:15;;;;;;;3.20;1.15;;;;;;;5.96;95.73;99199.91;10465097;28;20032;-88
2022/11/22 10:04:22;;;;;;;4.18;1.10;;;;;;;6.09;92.50;99199.59;10442129;28;20040;-88
2022/11/22 10:09:37;;;;;;;2.22;0.88;;;;;;;6.38;88.66;99184.22;10461507;28;20041;-92
2022/11/22 10:15:11;;;;;;;3.38;0.73;;;;;;;7.16;84.82;99179.16;10438349;28;20060;-87
2022/11/22 10:20:22;;;;;;;2.25;0.60;;;;;;;7.31;84.60;99177.09;10430861;28;20041;-84
2022/11/22 10:25:34;;;;;;;2.15;0.65;;;;;;;7.13;83.20;99166.94;10467413;28;20044;-85
2022/11/22 10:30:35;;;;;;;11.02;5.38;;;;;;;6.95;85.32;99167.19;10440646;28;20500;-83
2022/11/22 10:36:00;;;;;;;1.58;0.63;;;;;;;6.93;84.33;99161.03;10445223;28;20041;-83
2022/11/22 10:41:19;;;;;;;2.40;0.80;;;;;;;6.71;85.92;99162.88;10433547;28;20040;-86
2022/11/22 10:46:26;;;;;;;3.20;1.73;;;;;;;6.73;85.34;99155.16;10459976;28;20124;-84
2022/11/22 10:51:38;;;;;;;2.28;0.75;;;;;;;6.83;85.54;99148.53;10456915;28;20041;-87
2022/11/22 10:57:04;;;;;;;3.53;0.70;;;;;;;6.72;85.85;99148.19;10443891;28;20056;-86
2022/11/22 11:02:16;;;;;;;1.27;0.60;;;;;;;6.61;84.97;99147.78;10410476;28;20541;-84
2022/11/22 11:07:18;;;;;;;;;;;;;;;6.48;86.23;99151.66;10443479;28;20054;-86
2022/11/22 11:12:38;;;;;;;;;;;;;;;6.49;86.66;99132.66;10463157;28;19920;-85
2022/11/22 11:17:50;;;;;;;1.20;0.52;;;;;;;6.63;85.12;99127.06;10417735;28;20079;-85
2022/11/22 11:22:51;;;;;;;0.93;0.40;;;;;;;6.62;85.52;99128.75;10437375;28;20047;-86
2022/11/22 11:27:51;;;;;;;2.50;0.43;;;;;;;6.61;83.62;99122.69;10425216;28;20080;-86
2022/11/22 11:32:55;;;;;;;0.60;0.22;;;;;;;6.56;84.86;99128.53;10430155;28;20069;-82
2022/11/22 11:37:56;;;;;;;2.65;2.00;;;;;;;6.45;85.84;99128.16;10437151;28;20044;-83
2022/11/22 11:43:21;;;;;;;1.55;0.80;;;;;;;6.51;85.06;99128.41;10472129;28;20505;-87
2022/11/22 11:48:33;;;;;;;1.42;0.50;;;;;;;6.47;85.42;99124.78;10430940;28;20048;-85
2022/11/22 11:53:37;;;;;;;9.23;4.13;;;;;;;6.42;87.02;99123.72;10420372;28;20508;-87
2022/11/22 11:58:37;;;;;;;1.30;0.52;;;;;;;6.49;86.96;99131.75;10440661;28;20044;-84
2022/11/22 12:03:38;;;;;;;2.33;1.27;;;;;;;6.46;84.70;99124.75;10429705;28;20071;-86
2022/11/22 12:08:39;;;;;;;1.30;0.50;;;;;;;6.43;86.02;99135.91;10430136;28;20059;-85
2022/11/22 12:13:45;;;;;;;0.75;0.15;;;;;;;6.41;85.93;99134.94;10444665;28;20389;-87
2022/11/22 12:18:52;;;;;;;0.70;0.15;;;;;;;6.47;85.80;99135.19;10428780;28;20072;-85
2022/11/22 12:23:52;;;;;;;0.98;0.30;;;;;;;6.42;86.61;99131.53;10402367;28;20513;-84
2022/11/22 12:28:53;;;;;;;1.13;0.65;;;;;;;6.45;85.76;99125.56;10406977;28;20049;-82
2022/11/22 12:33:59;;;;;;;6.97;0.50;;;;;;;6.43;84.94;99119.44;10403486;28;20030;-82
2022/11/22 12:39:01;;;;;;;0.30;0.30;;;;;;;6.52;86.72;99109.38;10421177;28;20034;-82
2022/11/22 12:44:02;;;;;;;2.13;0.40;;;;;;;6.61;84.21;99111.41;10411551;28;20049;-81
2022/11/22 12:49:26;;;;;;;0.87;0.30;;;;;;;6.69;84.83;99109.94;10443218;28;20040;-82
2022/11/22 12:54:31;;;;;;;0.30;0.20;;;;;;;6.73;83.82;99111.81;10446069;28;20037;-81
2022/11/22 12:59:50;;;;;;;0.90;0.30;;;;;;;7.08;83.77;99106.06;10444601;28;20033;-82
2022/11/22 13:04:55;;;;;;;0.70;0.20;;;;;;;7.23;83.05;99113.47;10446939;28;20132;-82
2022/11/22 13:09:59;;;;;;;0.77;0.35;;;;;;;7.13;83.55;99103.59;10467430;28;20094;-81
2022/11/22 13:15:00;;;;;;;1.75;0.32;;;;;;;7.04;83.35;99106.81;10470160;28;20037;-83
2022/11/22 13:20:07;;;;;;;1.75;0.55;;;;;;;7.04;82.23;99112.00;10468202;28;20097;-82
2022/11/22 13:25:26;;;;;;;0.63;0.20;;;;;;;6.98;82.88;99111.81;10484765;28;20086;-82
2022/11/22 13:30:28;;;;;;;0.47;0.20;;;;;;;6.87;81.48;99108.81;10485515;28;20048;-82
2022/11/22 13:35:33;;;;;;;0.50;0.20;;;;;;;6.90;83.34;99091.63;10454892;28;20045;-82
2022/11/22 13:40:35;;;;;;;1.75;0.30;;;;;;;6.81;83.50;99108.59;10443797;28;20053;-86
2022/11/22 13:45:57;;;;;;;1.02;0.10;;;;;;;6.83;83.03;99107.84;10449334;28;20043;-81
2022/11/22 13:50:58;;;;;;;2.95;0.55;;;;;;;6.96;83.47;99109.13;10483038;28;20044;-81
2022/11/22 13:56:13;;;;;;;2.08;0.40;;;;;;;7.06;83.32;99099.94;10485033;28;20480;-82
2022/11/22 14:01:33;;;;;;;2.95;0.70;;;;;;;7.11;82.91;99107.88;10457650;28;20537;-82
2022/11/22 14:06:34;;;;;;;0.93;0.20;;;;;;;7.03;83.61;99115.44;10401487;28;20084;-81
2022/11/22 14:12:03;;;;;;;0.43;0.35;;;;;;;6.98;83.87;99117.88;10413741;28;20157;-80
2022/11/22 14:17:25;;;;;;;0.47;0.20;;;;;;;6.86;84.83;99114.84;10387043;28;20059;-81
2022/11/22 14:22:31;;;;;;;0.52;0.30;;;;;;;7.01;84.30;99114.50;10438025;28;20041;-80
2022/11/22 14:27:42;;;;;;;0.15;0.13;;;;;;;7.01;85.10;99104.97;10420618;28;20095;-82
2022/11/22 14:33:04;;;;;;;0.50;0.50;;;;;;;6.95;85.32;99098.69;10430805;28;20397;-84
2022/11/22 14:38:08;;;;;;;1.10;0.38;;;;;;;6.90;86.94;99108.91;10421733;28;20041;-82
2022/11/22 14:43:27;;;;;;;0.75;0.30;;;;;;;6.90;85.93;99107.22;10413195;28;20485;-83
2022/11/22 14:48:32;;;;;;;1.95;0.63;;;;;;;6.88;85.85;99101.09;10431351;28;20033;-81
2022/11/22 14:53:51;;;;;;;0.85;0.17;;;;;;;6.76;88.31;99111.06;10459250;28;20127;-81
2022/11/22 14:58:59;;;;;;;0.38;0.30;;;;;;;6.71;89.62;99107.41;10455487;28;20103;-83
2022/11/22 15:04:21;;;;;;;0.65;0.35;;;;;;;6.51;92.26;99118.00;10425282;28;20124;-82
2022/11/22 15:09:47;;;;;;;0.75;0.22;;;;;;;6.34;95.45;99119.09;10436111;28;20492;-79
2022/11/22 15:15:14;;;;;;;1.23;0.85;;;;;;;6.21;97.52;99120.34;10418578;28;20076;-83
2022/11/22 15:20:31;;;;;;;2.22;0.40;;;;;;;6.10;98.81;99135.53;10431685;28;20561;-86
2022/11/22 15:25:31;;;;;;;2.20;1.13;;;;;;;6.00;100.00;99131.66;10468421;28;20037;-86
2022/11/22 15:30:34;;;;;;;4.68;1.13;;;;;;;5.96;100.00;99146.25;10441437;28;20059;-81
2022/11/22 15:35:37;;;;;;;1.42;0.57;;;;;;;5.87;100.00;99148.50;10463852;28;20460;-85
2022/11/22 15:40:38;;;;;;;3.72;1.30;;;;;;;5.78;100.00;99159.41;10431399;28;20037;-89
2022/11/22 15:45:41;;;;;;;2.67;1.02;;;;;;;5.57;100.00;99164.63;10454259;28;20036;-86
2022/11/22 15:51:03;;;;;;;3.83;2.08;;;;;;;5.44;100.00;99163.22;10407415;28;20069;-85
2022/11/22 15:56:23;;;;;;;1.02;0.63;;;;;;;5.34;100.00;99167.19;10447302;28;20041;-84
2022/11/22 16:01:24;;;;;;;2.15;0.77;;;;;;;5.31;100.00;99177.44;10456548;28;20106;-84
2022/11/22 16:06:26;;;;;;;2.75;1.02;;;;;;;5.31;100.00;99172.25;10428650;28;20550;-87
2022/11/22 16:11:36;;;;;;;2.03;0.77;;;;;;;5.27;100.00;99180.72;10425641;28;20056;-89
2022/11/22 16:16:37;;;;;;;3.72;1.20;;;;;;;5.35;100.00;99187.09;10430010;28;20504;-85
2022/11/22 16:21:37;;;;;;;3.00;1.15;;;;;;;5.34;100.00;99187.94;10461483;28;20051;-85
2022/11/22 16:26:38;;;;;;;3.10;1.23;;;;;;;5.37;100.00;99193.25;10466420;28;20029;-81
2022/11/22 16:31:39;;;;;;;3.70;1.77;;;;;;;5.52;100.00;99185.19;10440316;28;20123;-79
2022/11/22 16:36:39;;;;;;;3.53;1.30;;;;;;;5.54;100.00;99191.34;10436938;28;20086;-83
2022/11/22 16:41:48;;;;;;;4.78;1.95;;;;;;;5.67;100.00;99187.53;10445399;28;20045;-78
2022/11/22 16:46:49;;;;;;;1.63;1.05;;;;;;;5.80;100.00;99198.41;10434654;28;20037;-83
2022/11/22 16:51:50;;;;;;;3.95;1.92;;;;;;;5.81;100.00;99203.66;10453728;28;20501;-88
2022/11/22 16:56:52;;;;;;;5.03;2.92;;;;;;;5.90;100.00;99200.56;10430219;28;20048;-88
2022/11/22 17:01:52;;;;;;;4.18;2.53;;;;;;;5.94;100.00;99202.44;10460009;28;20435;-83
2022/11/22 17:06:53;;;;;;;2.83;1.40;;;;;;;5.98;100.00;99208.63;10453239;28;20094;-82
2022/11/22 17:11:54;;;;;;;4.38;1.33;;;;;;;6.01;100.00;99211.38;10460984;28;20114;-84
2022/11/22 17:16:54;;;;;;;2.60;1.17;;;;;;;6.07;100.00;99215.94;10461231;28;20045;-82
2022/11/22 17:21:55;;;;;;;3.50;1.30;;;;;;;6.08;100.00;99215.13;10461684;28;20049;-84
2022/11/22 17:26:55;;;;;;;4.45;1.88;;;;;;;6.08;100.00;99213.41;10479524;28;20468;-83
2022/11/22 17:31:56;;;;;;;1.75;1.13;;;;;;;6.18;100.00;99217.25;10477821;28;20039;-83
2022/11/22 17:36:56;;;;;;;2.65;1.45;;;;;;;6.16;100.00;99217.19;10463875;28;20033;-84
2022/11/22 17:41:57;;;;;;;4.90;1.85;;;;;;;6.18;100.00;99232.84;10481973;28;20040;-85
2022/11/22 17:46:58;;;;;;;5.55;1.70;;;;;;;6.09;100.00;99232.47;10461746;28;20037;-83
2022/11/22 17:51:58;;;;;;;6.15;2.15;;;;;;;5.99;100.00;99232.09;10454430;28;20071;-85
2022/11/22 17:56:59;;;;;;;3.72;1.80;;;;;;;5.83;100.00;99229.69;10482812;28;20056;-85
2022/11/22 18:01:59;;;;;;;7.43;3.95;;;;;;;5.76;100.00;99245.84;10459130;28;20136;-85
2022/11/22 18:07:00;;;;;;;3.58;2.03;;;;;;;5.74;100.00;99250.97;10445784;28;20036;-87
2022/11/22 18:12:00;;;;;;;6.25;2.22;;;;;;;5.73;100.00;99255.28;10452324;28;20147;-86
2022/11/22 18:17:01;;;;;;;4.25;2.97;;;;;;;5.70;100.00;99255.16;10440589;28;20036;-86
2022/11/22 18:22:01;;;;;;;8.60;4.22;;;;;;;5.67;100.00;99256.72;10433957;28;20044;-81
2022/11/22 18:27:02;;;;;;;4.40;2.78;;;;;;;5.64;100.00;99254.00;10436832;28;20041;-81
2022/11/22 18:32:02;;;;;;;6.20;3.67;;;;;;;5.62;100.00;99253.94;10424481;28;20045;-83
2022/11/22 18:37:04;;;;;;;8.02;3.38;;;;;;;5.57;100.00;99256.34;10399577;28;20037;-82
2022/11/22 18:42:13;;;;;;;5.68;2.63;;;;;;;5.59;100.00;99249.50;10428281;28;20438;-80
2022/11/22 18:47:13;;;;;;;8.73;2.92;;;;;;;5.68;100.00;99256.81;10431373;28;20033;-82
2022/11/22 18:52:14;;;;;;;16.02;4.20;;;;;;;5.65;100.00;99261.88;10441947;28;20037;-84
2022/11/22 18:57:14;;;;;;;11.95;4.32;;;;;;;5.73;100.00;99262.16;10458394;28;20037;-81
2022/11/22 19:02:16;;;;;;;10.95;4.93;;;;;;;5.81;100.00;99268.56;10438929;28;20122;-82
2022/11/22 19:07:16;;;;;;;8.77;5.38;;;;;;;5.85;100.00;99270.47;10455759;28;20577;-82
2022/11/22 19:12:17;;;;;;;10.25;3.33;;;;;;;5.90;100.00;99274.94;10459661;28;20041;-81
2022/11/22 19:17:18;;;;;;;16.73;5.22;;;;;;;5.99;100.00;99281.44;10457798;28;20037;-82
2022/11/22 19:22:18;;;;;;;15.93;10.15;;;;;;;6.02;100.00;99284.19;10454242;28;20044;-80
2022/11/22 19:27:19;;;;;;;12.80;5.03;;;;;;;6.10;100.00;99283.59;10441006;28;20064;-83
2022/11/22 19:32:20;;;;;;;9.18;4.93;;;;;;;6.16;100.00;99274.31;10438904;28;20041;-82
2022/11/22 19:37:20;;;;;;;19.45;5.97;;;;;;;6.13;100.00;99276.81;10478546;28;20036;-80
2022/11/22 19:42:21;;;;;;;13.07;5.03;;;;;;;6.13;100.00;99265.53;10438682;28;20098;-80
2022/11/22 19:47:21;;;;;;;10.07;3.60;;;;;;;6.15;100.00;99275.16;10437910;28;20128;-80
2022/11/22 19:52:22;;;;;;;14.80;5.03;;;;;;;6.21;100.00;99268.44;10420038;28;20139;-78
2022/11/22 19:57:23;;;;;;;19.98;6.80;;;;;;;6.23;100.00;99267.69;10438834;28;20064;-83
2022/11/22 20:02:25;;;;;;;10.02;4.47;;;;;;;6.31;100.00;99266.25;10429878;28;20055;-80
2022/11/22 20:07:28;;;;;;;10.43;3.40;;;;;;;6.46;100.00;99271.16;10442539;28;20140;-79
2022/11/22 20:12:29;;;;;;;12.10;4.05;;;;;;;6.53;100.00;99276.59;10451446;28;20072;-81
2022/11/22 20:17:29;;;;;;;12.68;4.40;;;;;;;6.55;100.00;99267.13;10452645;28;20457;-82
2022/11/22 20:22:30;;;;;;;18.58;6.05;;;;;;;6.69;100.00;99268.53;10456716;28;20046;-81
2022/11/22 20:27:30;;;;;;;13.23;4.32;;;;;;;6.72;100.00;99268.66;10453140;28;20071;-84
2022/11/22 20:32:31;;;;;;;8.88;3.72;;;;;;;6.86;100.00;99269.19;10441873;28;20124;-82
2022/11/22 20:37:34;;;;;;;12.60;3.25;;;;;;;6.88;100.00;99270.13;10455261;28;20059;-82
2022/11/22 20:42:34;;;;;;;6.70;3.65;;;;;;;6.95;100.00;99279.03;10459259;28;20046;-82
2022/11/22 20:47:35;;;;;;;10.20;3.92;;;;;;;6.94;100.00;99285.06;10457674;28;20037;-81
2022/11/22 20:52:35;;;;;;;13.63;4.07;;;;;;;7.01;100.00;99275.78;10437332;28;20075;-81
2022/11/22 20:57:37;;;;;;;19.25;5.72;;;;;;;7.07;100.00;99272.50;10439988;28;20033;-81
2022/11/22 21:02:37;;;;;;;9.47;4.13;;;;;;;7.05;100.00;99278.53;10444338;28;20029;-81
2022/11/22 21:07:38;;;;;;;22.52;2.90;;;;;;;7.01;100.00;99274.03;10445170;28;20397;-82
2022/11/22 21:12:38;;;;;;;14.23;4.07;;;;;;;6.98;100.00;99281.75;10447012;28;20041;-80
2022/11/22 21:17:39;;;;;;;8.13;3.17;;;;;;;7.01;100.00;99280.97;10447130;28;20175;-85
2022/11/22 21:22:40;;;;;;;16.33;4.20;;;;;;;6.78;100.00;99296.63;10419745;28;20037;-85
2022/11/22 21:27:40;;;;;;;12.05;4.43;;;;;;;6.71;100.00;99305.03;10405590;28;20053;-82
2022/11/22 21:32:41;;;;;;;7.90;2.60;;;;;;;6.66;100.00;99304.81;10429033;28;20136;-84
2022/11/22 21:37:41;;;;;;;14.18;3.70;;;;;;;6.69;100.00;99306.69;10449150;28;20037;-84
2022/11/22 21:42:43;;;;;;;9.38;4.32;;;;;;;6.69;100.00;99317.06;10427185;28;20039;-84
2022/11/22 21:47:46;;;;;;;9.98;4.65;;;;;;;6.58;100.00;99314.03;10453245;28;20457;-86
2022/11/22 21:52:46;;;;;;;8.98;3.03;;;;;;;6.51;100.00;99333.72;10438369;28;20859;-84
2022/11/22 21:57:47;;;;;;;19.92;3.45;;;;;;;6.42;100.00;99338.56;10444119;28;20094;-86
2022/11/22 22:02:47;;;;;;;8.65;3.17;;;;;;;6.35;100.00;99337.41;10455184;28;20477;-87
2022/11/22 22:07:49;;;;;;;15.20;4.57;;;;;;;6.37;100.00;99322.78;10441969;28;20122;-86
2022/11/22 22:12:50;;;;;;;8.98;3.33;;;;;;;6.39;100.00;99346.25;10443300;28;20037;-85
2022/11/22 22:17:52;;;;;;;7.50;2.80;;;;;;;6.45;100.00;99344.75;10442291;28;20539;-85
2022/11/22 22:22:53;;;;;;;9.82;4.10;;;;;;;6.40;100.00;99341.09;10418349;28;20034;-83
2022/11/22 22:27:56;;;;;;;11.85;4.57;;;;;;;6.43;100.00;99351.59;10442041;28;20064;-82
2022/11/22 22:32:57;;;;;;;11.77;5.38;;;;;;;6.40;100.00;99346.28;10447114;28;20121;-84
2022/11/22 22:37:59;;;;;;;12.70;4.18;;;;;;;6.38;100.00;99354.84;10482800;28;20085;-85
2022/11/22 22:43:00;;;;;;;13.50;3.85;;;;;;;6.33;100.00;99362.47;10482337;28;20400;-84
2022/11/22 22:48:01;;;;;;;10.93;3.72;;;;;;;6.37;100.00;99360.88;10462072;28;20127;-84
2022/11/22 22:53:01;;;;;;;12.02;3.42;;;;;;;6.47;100.00;99363.03;10444634;28;20119;-84
2022/11/22 22:58:02;;;;;;;8.85;3.53;;;;;;;6.46;100.00;99367.31;10460011;28;20134;-85
2022/11/22 23:03:03;;;;;;;10.85;3.63;;;;;;;6.53;100.00;99365.88;10408123;28;20464;-85
2022/11/22 23:08:04;;;;;;;6.53;2.47;;;;;;;6.49;100.00;99389.06;10407513;28;20045;-84
2022/11/22 23:13:04;;;;;;;8.77;3.80;;;;;;;6.43;100.00;99385.38;10438679;28;20098;-83
2022/11/22 23:18:05;;;;;;;9.80;3.45;;;;;;;6.45;100.00;99401.06;10417348;28;20034;-82
2022/11/22 23:23:05;;;;;;;12.30;3.85;;;;;;;6.41;100.00;99399.16;10418269;28;20055;-82
2022/11/22 23:28:06;;;;;;;13.20;3.75;;;;;;;6.38;100.00;99410.31;10373907;28;20095;-82
2022/11/22 23:33:06;;;;;;;13.50;3.05;;;;;;;6.38;100.00;99409.44;10399714;28;20144;-82
2022/11/22 23:38:07;;;;;;;6.57;2.97;;;;;;;6.43;100.00;99418.31;10403012;28;20037;-83
2022/11/22 23:43:07;;;;;;;7.05;2.72;;;;;;;6.53;100.00;99420.47;10401276;28;20053;-83
2022/11/22 23:48:08;;;;;;;9.98;2.90;;;;;;;6.61;100.00;99411.25;10425359;28;20086;-83
2022/11/22 23:53:08;;;;;;;14.98;4.20;;;;;;;6.56;100.00;99425.78;10430262;28;20063;-82